sensor_id;sensor_type;location;lat;lon;timestamp;P1;durP1;ratioP1;P2;durP2;ratioP2
41709;SDS011;59402;48.396;-4.472;2023-03-01T00:01:12;5.70;;;1.65;;
41709;SDS011;59402;48.396;-4.472;2023-03-01T00:03:39;3.65;;;1.17;;
41709;SDS011;59402;48.396;-4.472;2023-03-01T00:06:05;3.03;;;1.40;;
41709;SDS011;59402;48.396;-4.472;2023-03-01T00:08:31;6.93;;;1.50;;
41709;SDS011;59402;48.396;-4.472;2023-03-01T00:13:33;6.72;;;1.70;;
41709;SDS011;59402;48.396;-4.472;2023-03-01T00:16:01;3.67;;;1.75;;
41709;SDS011;59402;48.396;-4.472;2023-03-01T00:18:28;4.68;;;2.00;;
41709;SDS011;59402;48.396;-4.472;2023-03-01T00:20:54;5.63;;;1.67;;
41709;SDS011;59402;48.396;-4.472;2023-03-01T00:23:21;6.65;;;1.58;;
41709;SDS011;59402;48.396;-4.472;2023-03-01T00:25:47;3.38;;;1.35;;
41709;SDS011;59402;48.396;-4.472;2023-03-01T00:28:13;6.75;;;2.13;;
41709;SDS011;59402;48.396;-4.472;2023-03-01T00:30:40;7.13;;;1.77;;
41709;SDS011;59402;48.396;-4.472;2023-03-01T00:33:05;4.18;;;1.80;;
41709;SDS011;59402;48.396;-4.472;2023-03-01T00:35:32;7.60;;;2.10;;
41709;SDS011;59402;48.396;-4.472;2023-03-01T00:37:58;6.80;;;2.40;;
41709;SDS011;59402;48.396;-4.472;2023-03-01T00:40:24;7.03;;;2.55;;
41709;SDS011;59402;48.396;-4.472;2023-03-01T00:42:51;4.60;;;2.53;;
41709;SDS011;59402;48.396;-4.472;2023-03-01T00:45:17;5.63;;;2.97;;
41709;SDS011;59402;48.396;-4.472;2023-03-01T00:47:43;5.57;;;3.25;;
41709;SDS011;59402;48.396;-4.472;2023-03-01T00:50:09;9.50;;;3.40;;
41709;SDS011;59402;48.396;-4.472;2023-03-01T00:52:35;7.70;;;3.42;;
41709;SDS011;59402;48.396;-4.472;2023-03-01T00:55:01;6.18;;;3.40;;
41709;SDS011;59402;48.396;-4.472;2023-03-01T00:57:28;7.40;;;4.05;;
41709;SDS011;59402;48.396;-4.472;2023-03-01T00:59:53;8.20;;;4.30;;
41709;SDS011;59402;48.396;-4.472;2023-03-01T01:02:19;9.38;;;4.38;;
41709;SDS011;59402;48.396;-4.472;2023-03-01T01:04:45;7.43;;;4.22;;
41709;SDS011;59402;48.396;-4.472;2023-03-01T01:07:12;9.48;;;4.45;;
41709;SDS011;59402;48.396;-4.472;2023-03-01T01:09:38;9.25;;;4.93;;
41709;SDS011;59402;48.396;-4.472;2023-03-01T01:12:04;6.70;;;4.43;;
41709;SDS011;59402;48.396;-4.472;2023-03-01T01:14:30;7.22;;;4.80;;
41709;SDS011;59402;48.396;-4.472;2023-03-01T01:16:56;13.20;;;5.45;;
41709;SDS011;59402;48.396;-4.472;2023-03-01T01:19:22;8.35;;;5.40;;
41709;SDS011;59402;48.396;-4.472;2023-03-01T01:21:49;8.43;;;5.00;;
41709;SDS011;59402;48.396;-4.472;2023-03-01T01:24:15;13.77;;;5.55;;
41709;SDS011;59402;48.396;-4.472;2023-03-01T01:26:42;8.75;;;5.45;;
41709;SDS011;59402;48.396;-4.472;2023-03-01T01:29:08;14.75;;;5.60;;
41709;SDS011;59402;48.396;-4.472;2023-03-01T01:31:35;9.15;;;5.65;;
41709;SDS011;59402;48.396;-4.472;2023-03-01T01:34:02;10.85;;;5.85;;
41709;SDS011;59402;48.396;-4.472;2023-03-01T01:36:29;9.75;;;5.65;;
41709;SDS011;59402;48.396;-4.472;2023-03-01T01:38:54;12.50;;;6.55;;
41709;SDS011;59402;48.396;-4.472;2023-03-01T01:41:20;11.85;;;7.38;;
41709;SDS011;59402;48.396;-4.472;2023-03-01T01:43:48;12.65;;;7.38;;
41709;SDS011;59402;48.396;-4.472;2023-03-01T01:46:34;12.20;;;7.60;;
41709;SDS011;59402;48.396;-4.472;2023-03-01T01:49:25;13.32;;;8.02;;
41709;SDS011;59402;48.396;-4.472;2023-03-01T01:51:57;12.98;;;9.40;;
41709;SDS011;59402;48.396;-4.472;2023-03-01T01:54:29;16.30;;;10.65;;
41709;SDS011;59402;48.396;-4.472;2023-03-01T01:57:02;14.35;;;10.82;;
41709;SDS011;59402;48.396;-4.472;2023-03-01T01:59:31;16.00;;;11.05;;
41709;SDS011;59402;48.396;-4.472;2023-03-01T02:01:58;17.33;;;11.52;;
41709;SDS011;59402;48.396;-4.472;2023-03-01T02:04:27;17.08;;;12.23;;
41709;SDS011;59402;48.396;-4.472;2023-03-01T02:06:58;18.17;;;11.85;;
41709;SDS011;59402;48.396;-4.472;2023-03-01T02:09:27;16.40;;;12.25;;
41709;SDS011;59402;48.396;-4.472;2023-03-01T02:11:53;18.58;;;12.55;;
41709;SDS011;59402;48.396;-4.472;2023-03-01T02:14:19;19.95;;;13.48;;
41709;SDS011;59402;48.396;-4.472;2023-03-01T02:16:45;18.17;;;12.75;;
41709;SDS011;59402;48.396;-4.472;2023-03-01T02:19:13;17.33;;;12.95;;
41709;SDS011;59402;48.396;-4.472;2023-03-01T02:21:48;17.58;;;12.93;;
41709;SDS011;59402;48.396;-4.472;2023-03-01T02:24:25;17.02;;;13.00;;
41709;SDS011;59402;48.396;-4.472;2023-03-01T02:27:07;17.05;;;12.98;;
41709;SDS011;59402;48.396;-4.472;2023-03-01T02:29:34;18.40;;;13.77;;
41709;SDS011;59402;48.396;-4.472;2023-03-01T02:32:00;18.25;;;14.02;;
41709;SDS011;59402;48.396;-4.472;2023-03-01T02:34:28;19.60;;;13.88;;
41709;SDS011;59402;48.396;-4.472;2023-03-01T02:39:23;17.30;;;14.80;;
41709;SDS011;59402;48.396;-4.472;2023-03-01T02:41:53;20.63;;;14.52;;
41709;SDS011;59402;48.396;-4.472;2023-03-01T02:44:20;19.80;;;14.88;;
41709;SDS011;59402;48.396;-4.472;2023-03-01T02:46:47;20.67;;;15.82;;
41709;SDS011;59402;48.396;-4.472;2023-03-01T02:49:22;20.95;;;16.02;;
41709;SDS011;59402;48.396;-4.472;2023-03-01T02:52:00;25.60;;;15.82;;
41709;SDS011;59402;48.396;-4.472;2023-03-01T02:54:41;20.70;;;15.93;;
41709;SDS011;59402;48.396;-4.472;2023-03-01T02:57:10;21.75;;;16.38;;
41709;SDS011;59402;48.396;-4.472;2023-03-01T02:59:36;19.95;;;15.82;;
41709;SDS011;59402;48.396;-4.472;2023-03-01T03:02:28;24.10;;;16.58;;
41709;SDS011;59402;48.396;-4.472;2023-03-01T03:07:36;22.98;;;18.23;;
41709;SDS011;59402;48.396;-4.472;2023-03-01T03:10:04;23.65;;;17.50;;
41709;SDS011;59402;48.396;-4.472;2023-03-01T03:12:31;23.15;;;17.25;;
41709;SDS011;59402;48.396;-4.472;2023-03-01T03:14:57;28.38;;;19.10;;
41709;SDS011;59402;48.396;-4.472;2023-03-01T03:17:23;27.73;;;19.30;;
41709;SDS011;59402;48.396;-4.472;2023-03-01T03:19:48;26.10;;;19.77;;
41709;SDS011;59402;48.396;-4.472;2023-03-01T03:22:14;25.98;;;20.20;;
41709;SDS011;59402;48.396;-4.472;2023-03-01T03:24:40;29.33;;;19.63;;
41709;SDS011;59402;48.396;-4.472;2023-03-01T03:27:06;24.38;;;19.88;;
41709;SDS011;59402;48.396;-4.472;2023-03-01T03:29:32;30.05;;;20.27;;
41709;SDS011;59402;48.396;-4.472;2023-03-01T03:31:58;24.90;;;19.50;;
41709;SDS011;59402;48.396;-4.472;2023-03-01T03:34:24;29.00;;;20.63;;
41709;SDS011;59402;48.396;-4.472;2023-03-01T03:36:55;29.30;;;20.88;;
41709;SDS011;59402;48.396;-4.472;2023-03-01T03:39:27;28.95;;;21.23;;
41709;SDS011;59402;48.396;-4.472;2023-03-01T03:41:54;32.45;;;22.25;;
41709;SDS011;59402;48.396;-4.472;2023-03-01T03:44:20;28.88;;;21.08;;
41709;SDS011;59402;48.396;-4.472;2023-03-01T03:46:46;29.10;;;20.35;;
41709;SDS011;59402;48.396;-4.472;2023-03-01T03:49:12;30.00;;;21.98;;
41709;SDS011;59402;48.396;-4.472;2023-03-01T03:51:37;24.88;;;18.90;;
41709;SDS011;59402;48.396;-4.472;2023-03-01T03:54:03;29.98;;;20.38;;
41709;SDS011;59402;48.396;-4.472;2023-03-01T03:56:29;28.70;;;20.10;;
41709;SDS011;59402;48.396;-4.472;2023-03-01T03:58:54;26.63;;;20.25;;
41709;SDS011;59402;48.396;-4.472;2023-03-01T04:01:20;26.60;;;19.95;;
41709;SDS011;59402;48.396;-4.472;2023-03-01T04:03:46;29.05;;;20.55;;
41709;SDS011;59402;48.396;-4.472;2023-03-01T04:06:12;25.95;;;19.73;;
41709;SDS011;59402;48.396;-4.472;2023-03-01T04:08:39;28.00;;;19.77;;
41709;SDS011;59402;48.396;-4.472;2023-03-01T04:11:05;27.40;;;19.50;;
41709;SDS011;59402;48.396;-4.472;2023-03-01T04:13:49;23.85;;;18.95;;
41709;SDS011;59402;48.396;-4.472;2023-03-01T04:16:16;26.48;;;19.23;;
41709;SDS011;59402;48.396;-4.472;2023-03-01T04:18:43;25.05;;;18.33;;
41709;SDS011;59402;48.396;-4.472;2023-03-01T04:21:08;27.10;;;20.27;;
41709;SDS011;59402;48.396;-4.472;2023-03-01T04:23:35;26.40;;;21.27;;
41709;SDS011;59402;48.396;-4.472;2023-03-01T04:26:01;28.27;;;18.95;;
41709;SDS011;59402;48.396;-4.472;2023-03-01T04:30:53;25.65;;;20.80;;
41709;SDS011;59402;48.396;-4.472;2023-03-01T04:33:19;26.73;;;19.73;;
41709;SDS011;59402;48.396;-4.472;2023-03-01T04:35:45;28.77;;;20.08;;
41709;SDS011;59402;48.396;-4.472;2023-03-01T04:38:14;26.52;;;20.15;;
41709;SDS011;59402;48.396;-4.472;2023-03-01T04:40:41;24.63;;;19.80;;
41709;SDS011;59402;48.396;-4.472;2023-03-01T04:43:08;25.45;;;19.70;;
41709;SDS011;59402;48.396;-4.472;2023-03-01T04:45:35;25.93;;;19.30;;
41709;SDS011;59402;48.396;-4.472;2023-03-01T04:48:01;26.60;;;18.40;;
41709;SDS011;59402;48.396;-4.472;2023-03-01T04:50:27;27.52;;;19.65;;
41709;SDS011;59402;48.396;-4.472;2023-03-01T04:52:52;25.05;;;18.88;;
41709;SDS011;59402;48.396;-4.472;2023-03-01T04:55:18;23.80;;;19.10;;
41709;SDS011;59402;48.396;-4.472;2023-03-01T04:57:44;28.80;;;18.85;;
41709;SDS011;59402;48.396;-4.472;2023-03-01T05:00:10;23.42;;;18.58;;
41709;SDS011;59402;48.396;-4.472;2023-03-01T05:02:50;31.90;;;19.20;;
41709;SDS011;59402;48.396;-4.472;2023-03-01T05:05:41;26.48;;;19.17;;
41709;SDS011;59402;48.396;-4.472;2023-03-01T05:08:07;25.02;;;19.08;;
41709;SDS011;59402;48.396;-4.472;2023-03-01T05:10:34;23.75;;;18.42;;
41709;SDS011;59402;48.396;-4.472;2023-03-01T05:13:00;26.58;;;18.63;;
41709;SDS011;59402;48.396;-4.472;2023-03-01T05:15:28;26.98;;;19.42;;
41709;SDS011;59402;48.396;-4.472;2023-03-01T05:20:23;25.92;;;17.70;;
41709;SDS011;59402;48.396;-4.472;2023-03-01T05:22:50;25.48;;;18.95;;
41709;SDS011;59402;48.396;-4.472;2023-03-01T05:25:16;24.55;;;18.98;;
41709;SDS011;59402;48.396;-4.472;2023-03-01T05:27:43;25.08;;;19.05;;
41709;SDS011;59402;48.396;-4.472;2023-03-01T05:30:09;28.60;;;20.35;;
41709;SDS011;59402;48.396;-4.472;2023-03-01T05:32:41;25.73;;;19.67;;
41709;SDS011;59402;48.396;-4.472;2023-03-01T05:35:09;28.65;;;19.77;;
41709;SDS011;59402;48.396;-4.472;2023-03-01T05:37:42;24.80;;;19.23;;
41709;SDS011;59402;48.396;-4.472;2023-03-01T05:40:10;25.15;;;19.45;;
41709;SDS011;59402;48.396;-4.472;2023-03-01T05:42:53;22.23;;;17.90;;
41709;SDS011;59402;48.396;-4.472;2023-03-01T05:45:20;25.50;;;19.30;;
41709;SDS011;59402;48.396;-4.472;2023-03-01T05:47:46;26.60;;;19.73;;
41709;SDS011;59402;48.396;-4.472;2023-03-01T05:50:14;26.07;;;20.17;;
41709;SDS011;59402;48.396;-4.472;2023-03-01T05:52:45;25.23;;;19.85;;
41709;SDS011;59402;48.396;-4.472;2023-03-01T05:55:13;29.58;;;20.08;;
41709;SDS011;59402;48.396;-4.472;2023-03-01T05:57:40;28.07;;;19.80;;
41709;SDS011;59402;48.396;-4.472;2023-03-01T06:00:06;27.30;;;20.55;;
41709;SDS011;59402;48.396;-4.472;2023-03-01T06:02:37;28.25;;;19.73;;
41709;SDS011;59402;48.396;-4.472;2023-03-01T06:05:04;27.27;;;19.67;;
41709;SDS011;59402;48.396;-4.472;2023-03-01T06:07:31;25.40;;;18.67;;
41709;SDS011;59402;48.396;-4.472;2023-03-01T06:09:57;24.85;;;18.73;;
41709;SDS011;59402;48.396;-4.472;2023-03-01T06:12:23;25.65;;;18.98;;
41709;SDS011;59402;48.396;-4.472;2023-03-01T06:14:48;27.70;;;19.60;;
41709;SDS011;59402;48.396;-4.472;2023-03-01T06:17:14;28.13;;;19.25;;
41709;SDS011;59402;48.396;-4.472;2023-03-01T06:19:40;26.90;;;21.00;;
41709;SDS011;59402;48.396;-4.472;2023-03-01T06:22:06;26.33;;;19.02;;
41709;SDS011;59402;48.396;-4.472;2023-03-01T06:24:32;29.98;;;20.92;;
41709;SDS011;59402;48.396;-4.472;2023-03-01T06:26:58;24.42;;;19.88;;
41709;SDS011;59402;48.396;-4.472;2023-03-01T06:29:24;27.17;;;20.15;;
41709;SDS011;59402;48.396;-4.472;2023-03-01T06:31:49;28.85;;;20.40;;
41709;SDS011;59402;48.396;-4.472;2023-03-01T06:34:15;25.38;;;19.67;;
41709;SDS011;59402;48.396;-4.472;2023-03-01T06:36:41;28.42;;;21.05;;
41709;SDS011;59402;48.396;-4.472;2023-03-01T06:39:06;26.70;;;19.15;;
41709;SDS011;59402;48.396;-4.472;2023-03-01T06:41:32;26.77;;;19.67;;
41709;SDS011;59402;48.396;-4.472;2023-03-01T06:43:59;28.08;;;18.70;;
41709;SDS011;59402;48.396;-4.472;2023-03-01T06:46:25;27.13;;;19.15;;
41709;SDS011;59402;48.396;-4.472;2023-03-01T06:48:51;24.33;;;18.65;;
41709;SDS011;59402;48.396;-4.472;2023-03-01T06:51:17;25.58;;;18.73;;
41709;SDS011;59402;48.396;-4.472;2023-03-01T06:53:42;24.05;;;17.65;;
41709;SDS011;59402;48.396;-4.472;2023-03-01T06:56:08;25.55;;;18.00;;
41709;SDS011;59402;48.396;-4.472;2023-03-01T06:58:34;21.88;;;16.95;;
41709;SDS011;59402;48.396;-4.472;2023-03-01T07:01:00;23.17;;;17.13;;
41709;SDS011;59402;48.396;-4.472;2023-03-01T07:03:25;23.05;;;17.02;;
41709;SDS011;59402;48.396;-4.472;2023-03-01T07:05:51;24.75;;;17.60;;
41709;SDS011;59402;48.396;-4.472;2023-03-01T07:08:17;21.80;;;16.55;;
41709;SDS011;59402;48.396;-4.472;2023-03-01T07:10:43;22.27;;;17.00;;
41709;SDS011;59402;48.396;-4.472;2023-03-01T07:13:09;24.58;;;17.40;;
41709;SDS011;59402;48.396;-4.472;2023-03-01T07:15:35;22.90;;;17.10;;
41709;SDS011;59402;48.396;-4.472;2023-03-01T07:18:01;24.60;;;16.60;;
41709;SDS011;59402;48.396;-4.472;2023-03-01T07:20:26;21.17;;;16.63;;
41709;SDS011;59402;48.396;-4.472;2023-03-01T07:22:53;23.23;;;16.45;;
41709;SDS011;59402;48.396;-4.472;2023-03-01T07:25:19;24.83;;;17.23;;
41709;SDS011;59402;48.396;-4.472;2023-03-01T07:27:48;21.63;;;16.63;;
41709;SDS011;59402;48.396;-4.472;2023-03-01T07:30:15;21.13;;;14.82;;
41709;SDS011;59402;48.396;-4.472;2023-03-01T07:32:41;19.05;;;15.43;;
41709;SDS011;59402;48.396;-4.472;2023-03-01T07:35:07;22.38;;;16.35;;
41709;SDS011;59402;48.396;-4.472;2023-03-01T07:37:33;23.25;;;14.82;;
41709;SDS011;59402;48.396;-4.472;2023-03-01T07:39:59;18.90;;;14.50;;
41709;SDS011;59402;48.396;-4.472;2023-03-01T07:42:24;18.52;;;13.57;;
41709;SDS011;59402;48.396;-4.472;2023-03-01T07:44:50;21.13;;;14.38;;
41709;SDS011;59402;48.396;-4.472;2023-03-01T07:47:16;19.67;;;13.98;;
41709;SDS011;59402;48.396;-4.472;2023-03-01T07:49:41;20.10;;;13.18;;
41709;SDS011;59402;48.396;-4.472;2023-03-01T07:52:09;17.83;;;13.88;;
41709;SDS011;59402;48.396;-4.472;2023-03-01T07:54:38;18.20;;;12.68;;
41709;SDS011;59402;48.396;-4.472;2023-03-01T07:57:04;18.20;;;13.45;;
41709;SDS011;59402;48.396;-4.472;2023-03-01T07:59:29;19.95;;;12.88;;
41709;SDS011;59402;48.396;-4.472;2023-03-01T08:01:56;16.98;;;12.13;;
41709;SDS011;59402;48.396;-4.472;2023-03-01T08:04:22;18.38;;;13.07;;
41709;SDS011;59402;48.396;-4.472;2023-03-01T08:06:50;16.60;;;12.70;;
41709;SDS011;59402;48.396;-4.472;2023-03-01T08:09:16;14.80;;;11.77;;
41709;SDS011;59402;48.396;-4.472;2023-03-01T08:11:42;17.58;;;12.43;;
41709;SDS011;59402;48.396;-4.472;2023-03-01T08:14:07;16.70;;;13.13;;
41709;SDS011;59402;48.396;-4.472;2023-03-01T08:16:33;18.20;;;12.82;;
41709;SDS011;59402;48.396;-4.472;2023-03-01T08:19:04;17.37;;;12.07;;
41709;SDS011;59402;48.396;-4.472;2023-03-01T08:21:36;19.10;;;12.25;;
41709;SDS011;59402;48.396;-4.472;2023-03-01T08:24:03;14.05;;;11.48;;
41709;SDS011;59402;48.396;-4.472;2023-03-01T08:28:56;16.45;;;11.43;;
41709;SDS011;59402;48.396;-4.472;2023-03-01T08:31:25;14.10;;;9.85;;
41709;SDS011;59402;48.396;-4.472;2023-03-01T08:33:52;13.90;;;10.80;;
41709;SDS011;59402;48.396;-4.472;2023-03-01T08:36:24;14.27;;;10.60;;
41709;SDS011;59402;48.396;-4.472;2023-03-01T08:38:51;15.63;;;10.65;;
41709;SDS011;59402;48.396;-4.472;2023-03-01T08:41:17;14.43;;;10.48;;
41709;SDS011;59402;48.396;-4.472;2023-03-01T08:43:43;16.05;;;9.57;;
41709;SDS011;59402;48.396;-4.472;2023-03-01T08:46:09;16.02;;;10.02;;
41709;SDS011;59402;48.396;-4.472;2023-03-01T08:48:35;13.73;;;9.77;;
41709;SDS011;59402;48.396;-4.472;2023-03-01T08:51:11;16.75;;;10.68;;
41709;SDS011;59402;48.396;-4.472;2023-03-01T08:53:38;18.67;;;10.07;;
41709;SDS011;59402;48.396;-4.472;2023-03-01T08:56:05;12.73;;;10.07;;
41709;SDS011;59402;48.396;-4.472;2023-03-01T08:58:31;14.07;;;9.18;;
41709;SDS011;59402;48.396;-4.472;2023-03-01T09:00:57;13.77;;;9.40;;
41709;SDS011;59402;48.396;-4.472;2023-03-01T09:03:23;13.55;;;9.30;;
41709;SDS011;59402;48.396;-4.472;2023-03-01T09:05:50;12.63;;;9.70;;
41709;SDS011;59402;48.396;-4.472;2023-03-01T09:08:16;12.70;;;9.65;;
41709;SDS011;59402;48.396;-4.472;2023-03-01T09:10:43;14.68;;;9.43;;
41709;SDS011;59402;48.396;-4.472;2023-03-01T09:13:08;13.68;;;9.13;;
41709;SDS011;59402;48.396;-4.472;2023-03-01T09:15:36;15.38;;;9.23;;
41709;SDS011;59402;48.396;-4.472;2023-03-01T09:18:02;12.85;;;9.02;;
41709;SDS011;59402;48.396;-4.472;2023-03-01T09:20:28;13.00;;;8.88;;
41709;SDS011;59402;48.396;-4.472;2023-03-01T09:22:55;11.77;;;8.40;;
41709;SDS011;59402;48.396;-4.472;2023-03-01T09:25:21;12.63;;;9.10;;
41709;SDS011;59402;48.396;-4.472;2023-03-01T09:27:50;10.68;;;8.45;;
41709;SDS011;59402;48.396;-4.472;2023-03-01T09:30:16;12.25;;;8.50;;
41709;SDS011;59402;48.396;-4.472;2023-03-01T09:32:42;11.80;;;8.32;;
41709;SDS011;59402;48.396;-4.472;2023-03-01T09:35:10;9.40;;;7.50;;
41709;SDS011;59402;48.396;-4.472;2023-03-01T09:37:36;11.35;;;8.38;;
41709;SDS011;59402;48.396;-4.472;2023-03-01T09:40:04;12.43;;;8.40;;
41709;SDS011;59402;48.396;-4.472;2023-03-01T09:42:32;12.68;;;8.35;;
41709;SDS011;59402;48.396;-4.472;2023-03-01T09:47:33;11.45;;;8.23;;
41709;SDS011;59402;48.396;-4.472;2023-03-01T09:50:11;11.93;;;8.43;;
41709;SDS011;59402;48.396;-4.472;2023-03-01T09:55:08;13.77;;;9.05;;
41709;SDS011;59402;48.396;-4.472;2023-03-01T10:03:01;12.55;;;9.05;;
41709;SDS011;59402;48.396;-4.472;2023-03-01T10:06:06;12.60;;;9.07;;
41709;SDS011;59402;48.396;-4.472;2023-03-01T10:08:38;13.18;;;8.68;;
41709;SDS011;59402;48.396;-4.472;2023-03-01T10:13:48;11.88;;;8.52;;
41709;SDS011;59402;48.396;-4.472;2023-03-01T10:16:37;12.32;;;9.10;;
41709;SDS011;59402;48.396;-4.472;2023-03-01T10:19:15;15.05;;;9.88;;
41709;SDS011;59402;48.396;-4.472;2023-03-01T10:21:47;13.25;;;9.40;;
41709;SDS011;59402;48.396;-4.472;2023-03-01T10:24:14;15.07;;;10.02;;
41709;SDS011;59402;48.396;-4.472;2023-03-01T10:32:22;15.55;;;10.00;;
41709;SDS011;59402;48.396;-4.472;2023-03-01T10:34:47;15.48;;;10.35;;
41709;SDS011;59402;48.396;-4.472;2023-03-01T10:37:15;13.43;;;10.85;;
41709;SDS011;59402;48.396;-4.472;2023-03-01T10:42:34;17.48;;;11.15;;
41709;SDS011;59402;48.396;-4.472;2023-03-01T10:48:09;15.77;;;11.50;;
41709;SDS011;59402;48.396;-4.472;2023-03-01T10:53:43;16.58;;;11.45;;
41709;SDS011;59402;48.396;-4.472;2023-03-01T10:56:14;16.92;;;11.95;;
41709;SDS011;59402;48.396;-4.472;2023-03-01T10:59:02;14.77;;;11.73;;
41709;SDS011;59402;48.396;-4.472;2023-03-01T11:06:32;16.52;;;12.63;;
41709;SDS011;59402;48.396;-4.472;2023-03-01T11:09:01;16.63;;;13.40;;
41709;SDS011;59402;48.396;-4.472;2023-03-01T11:11:43;22.70;;;13.65;;
41709;SDS011;59402;48.396;-4.472;2023-03-01T11:14:14;18.83;;;13.55;;
41709;SDS011;59402;48.396;-4.472;2023-03-01T11:16:44;18.00;;;13.05;;
41709;SDS011;59402;48.396;-4.472;2023-03-01T11:21:37;20.08;;;14.25;;
41709;SDS011;59402;48.396;-4.472;2023-03-01T11:24:11;20.95;;;14.50;;
41709;SDS011;59402;48.396;-4.472;2023-03-01T11:26:39;18.88;;;14.07;;
41709;SDS011;59402;48.396;-4.472;2023-03-01T11:29:11;21.38;;;15.40;;
41709;SDS011;59402;48.396;-4.472;2023-03-01T11:31:41;20.13;;;14.88;;
41709;SDS011;59402;48.396;-4.472;2023-03-01T11:34:11;22.10;;;15.88;;
41709;SDS011;59402;48.396;-4.472;2023-03-01T11:36:48;22.55;;;16.17;;
41709;SDS011;59402;48.396;-4.472;2023-03-01T11:44:44;19.13;;;15.55;;
41709;SDS011;59402;48.396;-4.472;2023-03-01T11:52:48;19.20;;;15.18;;
41709;SDS011;59402;48.396;-4.472;2023-03-01T11:55:36;20.50;;;15.65;;
41709;SDS011;59402;48.396;-4.472;2023-03-01T12:03:47;18.02;;;14.95;;
41709;SDS011;59402;48.396;-4.472;2023-03-01T12:23:03;18.08;;;13.98;;
41709;SDS011;59402;48.396;-4.472;2023-03-01T12:25:55;17.50;;;14.43;;
41709;SDS011;59402;48.396;-4.472;2023-03-01T12:50:40;16.33;;;11.98;;
41709;SDS011;59402;48.396;-4.472;2023-03-01T12:53:26;15.52;;;12.05;;
41709;SDS011;59402;48.396;-4.472;2023-03-01T12:56:00;15.77;;;11.82;;
41709;SDS011;59402;48.396;-4.472;2023-03-01T13:09:19;16.67;;;11.85;;
41709;SDS011;59402;48.396;-4.472;2023-03-01T13:11:22;16.25;;;12.70;;
41709;SDS011;59402;48.396;-4.472;2023-03-01T13:13:49;17.20;;;11.88;;
41709;SDS011;59402;48.396;-4.472;2023-03-01T13:18:47;17.45;;;12.32;;
41709;SDS011;59402;48.396;-4.472;2023-03-01T13:21:13;17.85;;;12.13;;
41709;SDS011;59402;48.396;-4.472;2023-03-01T13:23:54;16.88;;;12.80;;
41709;SDS011;59402;48.396;-4.472;2023-03-01T13:26:20;16.70;;;13.30;;
41709;SDS011;59402;48.396;-4.472;2023-03-01T13:28:52;18.80;;;13.15;;
41709;SDS011;59402;48.396;-4.472;2023-03-01T13:33:53;17.50;;;13.00;;
41709;SDS011;59402;48.396;-4.472;2023-03-01T13:46:45;20.38;;;14.35;;
41709;SDS011;59402;48.396;-4.472;2023-03-01T13:49:13;17.83;;;12.75;;
41709;SDS011;59402;48.396;-4.472;2023-03-01T13:51:41;22.63;;;14.25;;
41709;SDS011;59402;48.396;-4.472;2023-03-01T13:54:11;17.55;;;14.00;;
41709;SDS011;59402;48.396;-4.472;2023-03-01T13:56:38;19.05;;;14.20;;
41709;SDS011;59402;48.396;-4.472;2023-03-01T13:59:04;20.73;;;14.80;;
41709;SDS011;59402;48.396;-4.472;2023-03-01T14:01:37;21.00;;;14.77;;
41709;SDS011;59402;48.396;-4.472;2023-03-01T14:04:03;19.83;;;15.55;;
41709;SDS011;59402;48.396;-4.472;2023-03-01T14:06:45;20.25;;;15.02;;
41709;SDS011;59402;48.396;-4.472;2023-03-01T14:09:18;21.15;;;15.40;;
41709;SDS011;59402;48.396;-4.472;2023-03-01T14:11:55;23.45;;;15.18;;
41709;SDS011;59402;48.396;-4.472;2023-03-01T14:20:02;22.92;;;15.50;;
41709;SDS011;59402;48.396;-4.472;2023-03-01T14:22:34;19.67;;;14.93;;
41709;SDS011;59402;48.396;-4.472;2023-03-01T14:25:47;21.13;;;15.70;;
41709;SDS011;59402;48.396;-4.472;2023-03-01T14:30:25;21.58;;;15.25;;
41709;SDS011;59402;48.396;-4.472;2023-03-01T14:32:56;24.25;;;16.67;;
41709;SDS011;59402;48.396;-4.472;2023-03-01T14:35:24;25.42;;;17.23;;
41709;SDS011;59402;48.396;-4.472;2023-03-01T14:37:55;26.95;;;18.15;;
41709;SDS011;59402;48.396;-4.472;2023-03-01T14:40:23;25.77;;;18.42;;
41709;SDS011;59402;48.396;-4.472;2023-03-01T14:42:52;28.88;;;18.35;;
41709;SDS011;59402;48.396;-4.472;2023-03-01T14:45:19;24.73;;;17.15;;
41709;SDS011;59402;48.396;-4.472;2023-03-01T14:47:45;23.90;;;17.50;;
41709;SDS011;59402;48.396;-4.472;2023-03-01T14:50:16;27.70;;;17.55;;
41709;SDS011;59402;48.396;-4.472;2023-03-01T14:52:48;27.80;;;18.65;;
41709;SDS011;59402;48.396;-4.472;2023-03-01T14:55:16;22.85;;;17.33;;
41709;SDS011;59402;48.396;-4.472;2023-03-01T14:57:46;23.98;;;16.33;;
41709;SDS011;59402;48.396;-4.472;2023-03-01T15:00:18;25.85;;;16.90;;
41709;SDS011;59402;48.396;-4.472;2023-03-01T15:02:55;21.98;;;17.38;;
41709;SDS011;59402;48.396;-4.472;2023-03-01T15:05:32;24.00;;;16.45;;
41709;SDS011;59402;48.396;-4.472;2023-03-01T15:07:59;23.52;;;17.65;;
41709;SDS011;59402;48.396;-4.472;2023-03-01T15:10:27;24.42;;;16.60;;
41709;SDS011;59402;48.396;-4.472;2023-03-01T15:12:55;26.13;;;17.50;;
41709;SDS011;59402;48.396;-4.472;2023-03-01T15:15:31;26.48;;;16.88;;
41709;SDS011;59402;48.396;-4.472;2023-03-01T15:18:03;21.23;;;15.73;;
41709;SDS011;59402;48.396;-4.472;2023-03-01T15:20:31;23.20;;;15.00;;
41709;SDS011;59402;48.396;-4.472;2023-03-01T15:23:00;19.88;;;15.73;;
41709;SDS011;59402;48.396;-4.472;2023-03-01T15:25:27;21.58;;;14.20;;
41709;SDS011;59402;48.396;-4.472;2023-03-01T15:27:55;19.80;;;14.55;;
41709;SDS011;59402;48.396;-4.472;2023-03-01T15:30:22;18.42;;;15.02;;
41709;SDS011;59402;48.396;-4.472;2023-03-01T15:35:46;22.48;;;14.48;;
41709;SDS011;59402;48.396;-4.472;2023-03-01T15:38:24;22.77;;;13.43;;
41709;SDS011;59402;48.396;-4.472;2023-03-01T15:40:57;18.17;;;13.93;;
41709;SDS011;59402;48.396;-4.472;2023-03-01T15:43:41;15.63;;;13.05;;
41709;SDS011;59402;48.396;-4.472;2023-03-01T15:48:49;17.92;;;12.38;;
41709;SDS011;59402;48.396;-4.472;2023-03-01T15:51:17;18.23;;;13.60;;
41709;SDS011;59402;48.396;-4.472;2023-03-01T15:53:49;18.13;;;12.68;;
41709;SDS011;59402;48.396;-4.472;2023-03-01T15:56:16;17.27;;;13.60;;
41709;SDS011;59402;48.396;-4.472;2023-03-01T15:58:42;20.45;;;13.48;;
41709;SDS011;59402;48.396;-4.472;2023-03-01T16:01:10;16.92;;;13.32;;
41709;SDS011;59402;48.396;-4.472;2023-03-01T16:03:40;18.35;;;12.68;;
41709;SDS011;59402;48.396;-4.472;2023-03-01T16:06:08;17.13;;;12.95;;
41709;SDS011;59402;48.396;-4.472;2023-03-01T16:08:34;20.88;;;13.68;;
41709;SDS011;59402;48.396;-4.472;2023-03-01T16:11:01;18.73;;;13.35;;
41709;SDS011;59402;48.396;-4.472;2023-03-01T16:13:33;18.77;;;12.95;;
41709;SDS011;59402;48.396;-4.472;2023-03-01T16:15:58;16.25;;;12.75;;
41709;SDS011;59402;48.396;-4.472;2023-03-01T16:18:24;18.33;;;13.10;;
41709;SDS011;59402;48.396;-4.472;2023-03-01T16:20:50;19.10;;;13.45;;
41709;SDS011;59402;48.396;-4.472;2023-03-01T16:23:16;16.27;;;13.38;;
41709;SDS011;59402;48.396;-4.472;2023-03-01T16:25:41;22.10;;;12.93;;
41709;SDS011;59402;48.396;-4.472;2023-03-01T16:28:07;19.13;;;12.57;;
41709;SDS011;59402;48.396;-4.472;2023-03-01T16:30:37;15.23;;;11.23;;
41709;SDS011;59402;48.396;-4.472;2023-03-01T16:33:04;18.98;;;12.00;;
41709;SDS011;59402;48.396;-4.472;2023-03-01T16:35:32;18.42;;;11.50;;
41709;SDS011;59402;48.396;-4.472;2023-03-01T16:37:59;18.98;;;11.40;;
41709;SDS011;59402;48.396;-4.472;2023-03-01T16:40:30;17.35;;;11.32;;
41709;SDS011;59402;48.396;-4.472;2023-03-01T16:43:14;16.85;;;11.20;;
41709;SDS011;59402;48.396;-4.472;2023-03-01T16:45:39;16.15;;;11.48;;
41709;SDS011;59402;48.396;-4.472;2023-03-01T16:48:12;17.13;;;10.70;;